S/y Good Life — VCJ2698 — position and weather

sailwx.info

Track history (hours):
 
Tides and Currents Weather Stations Pressure Air Temp Water Temp Dewpoint Dewpoint Depression Visibility Wind Speed Wind Dir Waves Ship Positions

S/y Good Life

Last reported at 2017-Dec-03 13:02 UTC. Time now 2017-Dec-18 20:38 UTC.
Position N 25°36' W 079°51'.
Warning: this ship's position is 15 days out of date.

Length 13 m.

Type: Sailing vessel. MMSI: 316035895.

Date/timePositionNaut miles runAvg speedWind from/ knotsBaromVisibWave heightAir tempDewpointWater temp
2017-Dec-03 13:02N 25°36' W 079°51'3 7.3
2017-Dec-03 12:34N 25°37' W 079°55'1 7.4
2017-Dec-03 12:25N 25°37' W 079°56'3 7.2
2017-Dec-03 11:56N 25°38' W 079°60'2 5.7
2017-Dec-03 11:30N 25°38' W 080°02'3 6.0
2017-Dec-03 11:00N 25°39' W 080°06'3 5.7
2017-Dec-03 10:30N 25°39' W 080°09'2 4.8
2017-Dec-03 10:00N 25°40' W 080°11'2 4.2
2017-Dec-03 09:30N 25°42' W 080°11'0 0.1
2017-Dec-03 08:59N 25°42' W 080°11'0 0.0
2017-Dec-03 08:26N 25°42' W 080°11'0 0.0
2017-Dec-03 07:59N 25°42' W 080°11'0 0.0
2017-Dec-03 07:29N 25°42' W 080°11'0 0.0
2017-Dec-03 06:53N 25°42' W 080°11'0 0.0
2017-Dec-03 06:23N 25°42' W 080°11'0 0.0
2017-Dec-03 05:56N 25°42' W 080°11'0 0.0
2017-Dec-03 05:14N 25°42' W 080°11'0 0.0
2017-Dec-03 04:56N 25°42' W 080°11'0 0.0
2017-Dec-03 04:26N 25°42' W 080°11'0 0.0
2017-Dec-03 03:53N 25°42' W 080°11'0 0.0
2017-Dec-03 03:17N 25°42' W 080°11'0 0.0
2017-Dec-03 02:56N 25°42' W 080°11'0 0.0
2017-Dec-03 02:26N 25°42' W 080°11'0 0.0
2017-Dec-03 01:59N 25°42' W 080°11'0 0.0
2017-Dec-03 01:29N 25°42' W 080°11'0 0.0
2017-Dec-03 00:56N 25°42' W 080°11'0 0.0
2017-Dec-03 00:29N 25°42' W 080°11'0 0.0
2017-Dec-02 23:56N 25°42' W 080°11'0 0.0
2017-Dec-02 23:29N 25°42' W 080°11'0 0.0
2017-Dec-02 22:53N 25°42' W 080°11'0 0.0
2017-Dec-02 22:23N 25°42' W 080°11'1 1.8
2017-Dec-02 21:59N 25°42' W 080°11'2 3.6
2017-Dec-02 21:28N 25°43' W 080°09'0 0.0
2017-Dec-02 20:58N 25°43' W 080°09'0 0.0
2017-Dec-02 20:28N 25°43' W 080°09'0 0.0
2017-Dec-02 19:58N 25°43' W 080°09'0 0.0
2017-Dec-02 19:28N 25°43' W 080°09'0 0.0
2017-Dec-02 18:55N 25°43' W 080°09'0 0.1
2017-Dec-02 18:30N 25°43' W 080°09'1 2.8
2017-Dec-02 18:01N 25°43' W 080°11'1 1.6
2017-Dec-02 17:24N 25°42' W 080°11'0 0.0
2017-Dec-02 17:00N 25°42' W 080°11'0 0.0
2017-Dec-02 16:30N 25°42' W 080°11'0 0.0
2017-Dec-02 16:00N 25°42' W 080°11'0 0.0
2017-Dec-02 15:30N 25°42' W 080°11'0 0.0
2017-Dec-02 14:51N 25°42' W 080°11'0 0.0
2017-Dec-02 14:23N 25°42' W 080°11'0 0.0
2017-Dec-02 13:53N 25°42' W 080°11'0 0.0
2017-Dec-02 13:29N 25°42' W 080°11'0 0.0
2017-Dec-02 12:56N 25°42' W 080°11'0 0.0
2017-Dec-02 12:29N 25°42' W 080°11'0 0.0
2017-Dec-02 11:59N 25°42' W 080°11'0 0.0
2017-Dec-02 11:29N 25°42' W 080°11'0 0.0
2017-Dec-02 10:59N 25°42' W 080°11'0 0.0
2017-Dec-02 10:29N 25°42' W 080°11'0 0.0
2017-Dec-02 09:59N 25°42' W 080°11'0 0.0
2017-Dec-02 09:29N 25°42' W 080°11'0 0.0
2017-Dec-02 08:56N 25°42' W 080°11'0 0.0
2017-Dec-02 08:29N 25°42' W 080°11'0 0.0
2017-Dec-02 07:59N 25°42' W 080°11'0 0.0
2017-Dec-02 07:29N 25°42' W 080°11'0 0.0
2017-Dec-02 06:59N 25°42' W 080°11'0 0.0
2017-Dec-02 06:29N 25°42' W 080°11'0 0.0
2017-Dec-02 05:59N 25°42' W 080°11'0 0.0
2017-Dec-02 05:29N 25°42' W 080°11'0 0.0
2017-Dec-02 04:59N 25°42' W 080°11'0 0.0
2017-Dec-02 04:29N 25°42' W 080°11'0 0.0
2017-Dec-02 03:59N 25°42' W 080°11'0 0.0
2017-Dec-02 03:23N 25°42' W 080°11'0 0.0
2017-Dec-02 02:59N 25°42' W 080°11'0 0.0
2017-Dec-02 02:29N 25°42' W 080°11'0 0.0
2017-Dec-02 01:59N 25°42' W 080°11'0 0.0
2017-Dec-02 01:29N 25°42' W 080°11'0 0.0
2017-Dec-02 00:59N 25°42' W 080°11'0 0.0
2017-Dec-02 00:20N 25°42' W 080°11'0 0.0
2017-Dec-01 23:59N 25°42' W 080°11'0 0.0
2017-Dec-01 23:29N 25°42' W 080°11'0 0.0
2017-Dec-01 22:59N 25°42' W 080°11'0 0.0
2017-Dec-01 22:29N 25°42' W 080°11'0 0.0
2017-Dec-01 21:56N 25°42' W 080°11'0 0.0
2017-Dec-01 21:29N 25°42' W 080°11'1 2.8
2017-Dec-01 20:59N 25°41' W 080°11'2 4.6
2017-Dec-01 20:30N 25°39' W 080°09'3 6.6
2017-Dec-01 20:00N 25°39' W 080°06'2 4.0
2017-Dec-01 19:30N 25°40' W 080°05'3 6.7
2017-Dec-01 18:59N 25°44' W 080°05'2 4.6
2017-Dec-01 18:30N 25°46' W 080°04'2 4.5
2017-Dec-01 18:00N 25°48' W 080°04'3 6.6
2017-Dec-01 17:30N 25°51' W 080°05'4 6.8
2017-Dec-01 16:56N 25°55' W 080°06'3 5.3
2017-Dec-01 16:25N 25°58' W 080°06'2 3.7
2017-Dec-01 15:55N 25°59' W 080°04'3 6.0
2017-Dec-01 15:25N 26°02' W 080°04'2 5.6
2017-Dec-01 15:00N 26°05' W 080°05'3 4.9
2017-Dec-01 14:28N 26°06' W 080°07'1 1.4
2017-Dec-01 13:57N 26°07' W 080°07'2 3.3
2017-Dec-01 13:26N 26°07' W 080°09'1 2.1
2017-Dec-01 12:55N 26°06' W 080°10'0 0.1
2017-Dec-01 12:29N 26°06' W 080°10'0 0.0
2017-Dec-01 11:59N 26°06' W 080°10'0 0.0
2017-Dec-01 11:29N 26°06' W 080°10'0 0.0
2017-Dec-01 10:59N 26°06' W 080°10'0 0.0
2017-Dec-01 10:29N 26°06' W 080°10'0 0.0
2017-Dec-01 09:59N 26°06' W 080°10'0 0.0
2017-Dec-01 09:29N 26°06' W 080°10'0 0.0
2017-Dec-01 08:59N 26°06' W 080°10'0 0.0
2017-Dec-01 08:29N 26°06' W 080°10'0 0.0
2017-Dec-01 07:59N 26°06' W 080°10'0 0.0
2017-Dec-01 07:29N 26°06' W 080°10'0 0.0
2017-Dec-01 06:59N 26°06' W 080°10'0 0.0
2017-Dec-01 06:29N 26°06' W 080°10'0 0.0
2017-Dec-01 05:59N 26°06' W 080°10'0 0.0
2017-Dec-01 05:20N 26°06' W 080°10'0 0.0
2017-Dec-01 04:50N 26°06' W 080°10'0 0.0
2017-Dec-01 04:23N 26°06' W 080°10'0 0.0
2017-Dec-01 03:53N 26°06' W 080°10'0 0.0
2017-Dec-01 03:23N 26°06' W 080°10'0 0.0
2017-Dec-01 02:53N 26°06' W 080°10'0 0.0
2017-Dec-01 02:23N 26°06' W 080°10'0 0.0
2017-Dec-01 01:53N 26°06' W 080°10'0 0.0
2017-Dec-01 01:26N 26°06' W 080°10'0 0.0
2017-Dec-01 00:53N 26°06' W 080°10'0 0.0
2017-Dec-01 00:26N 26°06' W 080°10'0 0.0
2017-Nov-30 23:56N 26°06' W 080°10'0 0.0
2017-Nov-30 23:26N 26°06' W 080°10'0 0.0
2017-Nov-30 22:56N 26°06' W 080°10'0 0.0
2017-Nov-30 22:29N 26°06' W 080°10'0 0.0
2017-Nov-30 21:56N 26°06' W 080°10'0 0.0
2017-Nov-30 21:29N 26°06' W 080°10'0 0.1
2017-Nov-30 20:59N 26°06' W 080°10'0 0.0
2017-Nov-30 20:29N 26°06' W 080°10'0 0.0
2017-Nov-30 19:59N 26°06' W 080°10'0 0.0
2017-Nov-30 19:29N 26°06' W 080°10'0 0.0
2017-Nov-30 18:58N 26°06' W 080°10'0 0.0
2017-Nov-30 18:28N 26°06' W 080°10'0 0.0
2017-Nov-30 17:58N 26°06' W 080°10'0 0.0
2017-Nov-30 17:28N 26°06' W 080°10'0 0.0
2017-Nov-30 16:58N 26°06' W 080°10'0 0.0
2017-Nov-30 16:28N 26°06' W 080°10'0 0.0
2017-Nov-30 15:55N 26°06' W 080°10'0 0.0
2017-Nov-30 15:28N 26°06' W 080°10'0 0.0
2017-Nov-30 14:58N 26°06' W 080°10'0 0.0
2017-Nov-30 14:28N 26°06' W 080°10'0 0.0
2017-Nov-30 13:58N 26°06' W 080°10'0 0.0
2017-Nov-30 13:19N 26°06' W 080°10'0 0.0
2017-Nov-30 12:46N 26°06' W 080°10'0 0.0
2017-Nov-30 12:19N 26°06' W 080°10'0 0.0
2017-Nov-30 11:46N 26°06' W 080°10'0 0.0
2017-Nov-30 11:22N 26°06' W 080°10'0 0.0
2017-Nov-30 10:52N 26°06' W 080°10'0 0.0
2017-Nov-30 10:22N 26°06' W 080°10'0 0.0
2017-Nov-30 09:52N 26°06' W 080°10'0 0.0
2017-Nov-30 09:22N 26°06' W 080°10'0 0.0
2017-Nov-30 08:52N 26°06' W 080°10'0 0.0
2017-Nov-30 08:22N 26°06' W 080°10'0 0.0
2017-Nov-30 07:55N 26°06' W 080°10'0 0.0
2017-Nov-30 07:22N 26°06' W 080°10'0 0.0
2017-Nov-30 06:55N 26°06' W 080°10'0 0.0
2017-Nov-30 06:25N 26°06' W 080°10'0 0.0
2017-Nov-30 05:55N 26°06' W 080°10'0 0.0
2017-Nov-30 05:28N 26°06' W 080°10'0 0.0
2017-Nov-30 04:58N 26°06' W 080°10'0 0.0
2017-Nov-30 04:28N 26°06' W 080°10'0 0.0
2017-Nov-30 03:58N 26°06' W 080°10'0 0.0
2017-Nov-30 03:28N 26°06' W 080°10'0 0.0
2017-Nov-30 02:58N 26°06' W 080°10'0 0.0
2017-Nov-30 02:28N 26°06' W 080°10'0 0.0
2017-Nov-30 01:58N 26°06' W 080°10'0 0.0
2017-Nov-30 01:28N 26°06' W 080°10'0 0.0
2017-Nov-30 00:58N 26°06' W 080°10'0 0.0
2017-Nov-30 00:28N 26°06' W 080°10'0 0.0
2017-Nov-29 23:58N 26°06' W 080°10'0 0.0
2017-Nov-29 23:28N 26°06' W 080°10'0 0.0
2017-Nov-29 22:58N 26°06' W 080°10'0 0.0
2017-Nov-29 22:19N 26°06' W 080°10'0 0.0
2017-Nov-29 21:52N 26°06' W 080°10'0 0.0
2017-Nov-29 21:22N 26°06' W 080°10'0 0.0
2017-Nov-29 20:52N 26°06' W 080°10'0 0.0
2017-Nov-29 20:22N 26°06' W 080°10'0 0.0
2017-Nov-29 19:52N 26°06' W 080°10'0 0.0
2017-Nov-29 19:22N 26°06' W 080°10'0 0.0
2017-Nov-29 18:55N 26°06' W 080°10'0 0.0
2017-Nov-29 18:25N 26°06' W 080°10'0 0.0
2017-Nov-29 17:55N 26°06' W 080°10'0 0.0
2017-Nov-29 17:25N 26°06' W 080°10'0 0.0
2017-Nov-29 16:55N 26°06' W 080°10'0 0.0
2017-Nov-29 16:25N 26°06' W 080°10'0 0.0
2017-Nov-29 15:55N 26°06' W 080°10'0 0.0
2017-Nov-29 15:28N 26°06' W 080°10'0 0.0
2017-Nov-29 14:55N 26°06' W 080°10'0 0.0
2017-Nov-29 14:28N 26°06' W 080°10'0 0.0
2017-Nov-29 13:58N 26°06' W 080°10'0 0.0
2017-Nov-29 13:25N 26°06' W 080°10'0 0.0
2017-Nov-29 12:58N 26°06' W 080°10'0 0.0
2017-Nov-29 12:28N 26°06' W 080°10'0 0.0
2017-Nov-29 11:58N 26°06' W 080°10'0 0.0
2017-Nov-29 11:28N 26°06' W 080°10'0 0.0
2017-Nov-29 10:58N 26°06' W 080°10'0 0.0
2017-Nov-29 10:28N 26°06' W 080°10'0 0.0
2017-Nov-29 09:58N 26°06' W 080°10'0 0.0
2017-Nov-29 09:28N 26°06' W 080°10'0 0.0
2017-Nov-29 08:49N 26°06' W 080°10'0 0.0
2017-Nov-29 08:19N 26°06' W 080°10'0 0.0
2017-Nov-29 07:49N 26°06' W 080°10'0 0.0
2017-Nov-29 07:22N 26°06' W 080°10'0 0.0
2017-Nov-29 06:52N 26°06' W 080°10'0 0.0
2017-Nov-29 06:19N 26°06' W 080°10'0 0.0
2017-Nov-29 05:52N 26°06' W 080°10'0 0.0
2017-Nov-29 05:22N 26°06' W 080°10'0 0.0
2017-Nov-29 04:55N 26°06' W 080°10'0 0.0
2017-Nov-29 04:25N 26°06' W 080°10'0 0.0
2017-Nov-29 03:55N 26°06' W 080°10'0 0.0
2017-Nov-29 03:25N 26°06' W 080°10'0 0.0
2017-Nov-29 02:55N 26°06' W 080°10'0 0.0
2017-Nov-29 02:25N 26°06' W 080°10'0 0.0
2017-Nov-29 01:58N 26°06' W 080°10'0 0.0
2017-Nov-29 01:28N 26°06' W 080°10'0 0.0
2017-Nov-29 00:58N 26°06' W 080°10'0 0.0
2017-Nov-29 00:28N 26°06' W 080°10'0 0.0
2017-Nov-28 23:58N 26°06' W 080°10'0 0.0
2017-Nov-28 23:28N 26°06' W 080°10'0 0.0
2017-Nov-28 22:58N 26°06' W 080°10'0 0.0
2017-Nov-28 22:28N 26°06' W 080°10'0 0.0
2017-Nov-28 21:58N 26°06' W 080°10'0 0.0
2017-Nov-28 21:28N 26°06' W 080°10'0 0.0
2017-Nov-28 20:58N 26°06' W 080°10'0 0.0
2017-Nov-28 20:28N 26°06' W 080°10'0 0.0
2017-Nov-28 19:58N 26°06' W 080°10'0 0.0
2017-Nov-28 19:28N 26°06' W 080°10'0 0.0
2017-Nov-28 18:49N 26°06' W 080°10'0 0.0
2017-Nov-28 18:16N 26°06' W 080°10'0 0.0
2017-Nov-28 17:49N 26°06' W 080°10'0 0.0
2017-Nov-28 17:22N 26°06' W 080°10'0 0.0
2017-Nov-28 16:52N 26°06' W 080°10'0 0.1
2017-Nov-28 16:22N 26°06' W 080°10'0 0.2
2017-Nov-28 15:58N 26°06' W 080°10'0 0.0
2017-Nov-28 14:58N 26°06' W 080°10'0 0.0
2017-Nov-28 14:28N 26°06' W 080°10'0 0.0
2017-Nov-28 13:49N 26°06' W 080°10'0 0.0
2017-Nov-28 13:19N 26°06' W 080°10'0 0.0
2017-Nov-28 12:49N 26°06' W 080°10'0 0.0
2017-Nov-28 12:19N 26°06' W 080°10'0 0.0
2017-Nov-28 11:52N 26°06' W 080°10'0 0.0
2017-Nov-28 11:22N 26°06' W 080°10'0 0.0
2017-Nov-28 10:52N 26°06' W 080°10'0 0.0
2017-Nov-28 10:22N 26°06' W 080°10'0 0.0
2017-Nov-28 09:52N 26°06' W 080°10'0 0.0
2017-Nov-28 09:25N 26°06' W 080°10'0 0.0
2017-Nov-28 08:55N 26°06' W 080°10'0 0.0
2017-Nov-28 08:25N 26°06' W 080°10'0 0.0
2017-Nov-28 07:55N 26°06' W 080°10'0 0.0
2017-Nov-28 07:25N 26°06' W 080°10'0 0.0
2017-Nov-28 06:55N 26°06' W 080°10'0 0.0
2017-Nov-28 06:28N 26°06' W 080°10'0 0.0
2017-Nov-28 05:58N 26°06' W 080°10'0 0.0
2017-Nov-28 05:28N 26°06' W 080°10'0 0.0
2017-Nov-28 04:28N 26°06' W 080°10'0 0.0
2017-Nov-28 03:58N 26°06' W 080°10'0 0.0
2017-Nov-28 03:28N 26°06' W 080°10'0 0.0
2017-Nov-28 02:58N 26°06' W 080°10'0 0.0
2017-Nov-28 02:28N 26°06' W 080°10'0 0.0
2017-Nov-28 01:58N 26°06' W 080°10'0 0.0
2017-Nov-28 01:28N 26°06' W 080°10'0 0.0
2017-Nov-28 00:58N 26°06' W 080°10'0 0.0
2017-Nov-28 00:28N 26°06' W 080°10'0 0.0
2017-Nov-27 23:58N 26°06' W 080°10'0 0.0
2017-Nov-27 23:19N 26°06' W 080°10'0 0.0
2017-Nov-27 22:49N 26°06' W 080°10'0 0.0
2017-Nov-27 22:22N 26°06' W 080°10'0 0.0
2017-Nov-27 21:52N 26°06' W 080°10'0 0.0
2017-Nov-27 21:22N 26°06' W 080°10'0 0.0
2017-Nov-27 20:52N 26°06' W 080°10'0 0.0
2017-Nov-27 20:22N 26°06' W 080°10'0 0.0
2017-Nov-27 19:52N 26°06' W 080°10'0 0.0
2017-Nov-27 19:25N 26°06' W 080°10'0 0.0
2017-Nov-27 18:55N 26°06' W 080°10'0 0.0
2017-Nov-27 18:25N 26°06' W 080°10'0 0.0
2017-Nov-27 17:55N 26°06' W 080°10'0 0.0
2017-Nov-27 17:25N 26°06' W 080°10'0 0.0
2017-Nov-27 16:55N 26°06' W 080°10'1 1.3
2017-Nov-27 16:30N 26°06' W 080°10'1 2.6
2017-Nov-27 16:00N 26°07' W 080°08'2 3.2
2017-Nov-27 15:30N 26°06' W 080°07'0 0.1
2017-Nov-27 14:58N 26°06' W 080°07'0 0.0
2017-Nov-27 14:28N 26°06' W 080°07'0 0.0
2017-Nov-27 13:58N 26°06' W 080°07'0 0.0
2017-Nov-27 13:28N 26°06' W 080°07'0 0.0
2017-Nov-27 12:58N 26°06' W 080°07'0 0.0
2017-Nov-27 12:28N 26°06' W 080°07'0 0.0
2017-Nov-27 11:58N 26°06' W 080°07'0 0.0
2017-Nov-27 11:28N 26°06' W 080°07'0 0.0
2017-Nov-27 10:58N 26°06' W 080°07'0 0.0
2017-Nov-27 10:19N 26°06' W 080°07'0 0.0
2017-Nov-27 09:52N 26°06' W 080°07'0 0.0
2017-Nov-27 09:22N 26°06' W 080°07'0 0.0
2017-Nov-27 08:52N 26°06' W 080°07'0 0.0
2017-Nov-27 08:22N 26°06' W 080°07'0 0.0
2017-Nov-27 07:52N 26°06' W 080°07'0 0.0
2017-Nov-27 07:22N 26°06' W 080°07'0 0.0
2017-Nov-27 06:40N 26°06' W 080°07'0 0.0
2017-Nov-27 06:22N 26°06' W 080°07'0 0.0
2017-Nov-27 05:55N 26°06' W 080°07'0 0.0
2017-Nov-27 05:25N 26°06' W 080°07'0 0.0
2017-Nov-27 04:25N 26°06' W 080°07'0 0.0
2017-Nov-27 03:55N 26°06' W 080°07'0 0.0
2017-Nov-27 03:28N 26°06' W 080°07'0 0.0
2017-Nov-27 02:55N 26°06' W 080°07'0 0.0
2017-Nov-27 02:25N 26°06' W 080°07'0 0.0
2017-Nov-27 01:58N 26°06' W 080°07'0 0.0
2017-Nov-27 01:28N 26°06' W 080°07'0 0.0
2017-Nov-27 00:58N 26°06' W 080°07'0 0.0
2017-Nov-27 00:28N 26°06' W 080°07'0 0.0
2017-Nov-26 23:46N 26°06' W 080°07'0 0.0
2017-Nov-26 23:28N 26°06' W 080°07'0 0.0
2017-Nov-26 22:46N 26°06' W 080°07'0 0.0
2017-Nov-26 22:19N 26°06' W 080°07'0 0.0
2017-Nov-26 21:58N 26°06' W 080°07'0 0.0
2017-Nov-26 21:23N 26°06' W 080°07'1 1.6
2017-Nov-26 21:00N 26°06' W 080°07'1 1.2
2017-Nov-26 20:27N 26°06' W 080°06'2 3.7
2017-Nov-26 19:57N 26°04' W 080°05'2 4.1
2017-Nov-26 19:26N 26°02' W 080°04'2 4.4
2017-Nov-26 18:56N 26°00' W 080°04'2 4.2
2017-Nov-26 18:25N 25°58' W 080°04'2 3.9
2017-Nov-26 17:56N 25°56' W 080°04'2 4.5
2017-Nov-26 17:30N 25°54' W 080°05'2 4.8
2017-Nov-26 17:00N 25°52' W 080°05'3 5.2
2017-Nov-26 16:30N 25°49' W 080°05'3 5.1
2017-Nov-26 16:00N 25°47' W 080°05'2 4.4
2017-Nov-26 15:30N 25°44' W 080°05'2 5.0
2017-Nov-26 15:00N 25°42' W 080°05'3 5.1
2017-Nov-26 14:30N 25°39' W 080°05'3 5.1
2017-Nov-26 14:00N 25°39' W 080°08'3 5.8
2017-Nov-26 13:30N 25°39' W 080°11'2 4.5
2017-Nov-26 12:57N 25°42' W 080°11'0 0.0
2017-Nov-26 12:27N 25°42' W 080°11'0 0.0
2017-Nov-26 12:00N 25°42' W 080°11'0 0.0
2017-Nov-26 11:24N 25°42' W 080°11'0 0.0
2017-Nov-26 10:57N 25°42' W 080°11'0 0.0
2017-Nov-26 10:30N 25°42' W 080°11'0 0.0
2017-Nov-26 09:57N 25°42' W 080°11'0 0.0
2017-Nov-26 09:30N 25°42' W 080°11'0 0.0
2017-Nov-26 09:00N 25°42' W 080°11'0 0.0
2017-Nov-26 08:30N 25°42' W 080°11'0 0.0
2017-Nov-26 08:00N 25°42' W 080°11'0 0.0
2017-Nov-26 07:30N 25°42' W 080°11'0 0.0
2017-Nov-26 07:00N 25°42' W 080°11'0 0.0
2017-Nov-26 06:21N 25°42' W 080°11'0 0.0
2017-Nov-26 05:57N 25°42' W 080°11'0 0.0
2017-Nov-26 05:30N 25°42' W 080°11'0 0.0
2017-Nov-26 04:51N 25°42' W 080°11'0 0.0
2017-Nov-26 04:30N 25°42' W 080°11'0 0.0
2017-Nov-26 03:54N 25°42' W 080°11'0 0.0
2017-Nov-26 03:27N 25°42' W 080°11'0 0.0
2017-Nov-26 02:54N 25°42' W 080°11'0 0.0
2017-Nov-26 02:30N 25°42' W 080°11'0 0.0
2017-Nov-26 01:54N 25°42' W 080°11'0 0.0
2017-Nov-26 01:30N 25°42' W 080°11'0 0.0
2017-Nov-26 01:00N 25°42' W 080°11'0 0.0
2017-Nov-26 00:30N 25°42' W 080°11'0 0.0
2017-Nov-26 00:00N 25°42' W 080°11'0 0.0
2017-Nov-25 23:30N 25°42' W 080°11'0 0.0
2017-Nov-25 22:54N 25°42' W 080°11'0 0.0
2017-Nov-25 22:30N 25°42' W 080°11'0 0.0
2017-Nov-25 22:00N 25°42' W 080°11'0 0.0
2017-Nov-25 21:30N 25°42' W 080°11'0 0.0
2017-Nov-25 21:00N 25°42' W 080°11'0 0.0
2017-Nov-25 20:27N 25°42' W 080°11'0 0.0
2017-Nov-25 20:00N 25°42' W 080°11'0 0.0
2017-Nov-25 19:30N 25°42' W 080°11'0 0.3
2017-Nov-25 19:00N 25°42' W 080°11'3 5.2
2017-Nov-25 18:29N 25°39' W 080°12'3 5.4
2017-Nov-25 18:00N 25°37' W 080°13'3 5.3
2017-Nov-25 17:30N 25°34' W 080°14'3 0.2
2017-Nov-24 19:14N 25°31' W 080°14'2 4.5
2017-Nov-24 18:53N 25°32' W 080°14'2 3.6
2017-Nov-24 18:22N 25°34' W 080°14'1 3.3
2017-Nov-24 18:00N 25°35' W 080°14'3 5.3
2017-Nov-24 17:30N 25°38' W 080°13'3 5.6
2017-Nov-24 17:00N 25°41' W 080°12'2 3.1
2017-Nov-24 16:30N 25°42' W 080°11'0 0.0
2017-Nov-24 16:00N 25°42' W 080°11'0 0.0
2017-Nov-24 15:27N 25°42' W 080°11'0 0.0
2017-Nov-24 14:54N 25°42' W 080°11'0 0.0
2017-Nov-24 14:30N 25°42' W 080°11'0 0.0
2017-Nov-24 14:00N 25°42' W 080°11'0 0.0
2017-Nov-24 13:30N 25°42' W 080°11'0 0.0
2017-Nov-24 12:51N 25°42' W 080°11'0 0.0
2017-Nov-24 12:30N 25°42' W 080°11'0 0.0
2017-Nov-24 12:00N 25°42' W 080°11'0 0.0
2017-Nov-24 11:27N 25°42' W 080°11'0 0.0
2017-Nov-24 10:57N 25°42' W 080°11'0 0.0
2017-Nov-24 10:27N 25°42' W 080°11'0 0.0
2017-Nov-24 10:00N 25°42' W 080°11'0 0.0
2017-Nov-24 09:27N 25°42' W 080°11'0 0.0
2017-Nov-24 09:00N 25°42' W 080°11'0 0.0
2017-Nov-24 08:27N 25°42' W 080°11'0 0.0
2017-Nov-24 08:00N 25°42' W 080°11'0 0.0
2017-Nov-24 07:27N 25°42' W 080°11'0 0.0
2017-Nov-24 06:57N 25°42' W 080°11'0 0.0
2017-Nov-24 06:27N 25°42' W 080°11'0 0.0
2017-Nov-24 05:51N 25°42' W 080°11'0 0.0
2017-Nov-24 05:30N 25°42' W 080°11'0 0.0
2017-Nov-24 05:00N 25°42' W 080°11'0 0.0
2017-Nov-24 04:30N 25°42' W 080°11'0 0.0
2017-Nov-24 04:00N 25°42' W 080°11'0 0.0
2017-Nov-24 03:27N 25°42' W 080°11'0 0.0
2017-Nov-24 02:57N 25°42' W 080°11'0 0.0
2017-Nov-24 02:27N 25°42' W 080°11'0 0.0
2017-Nov-24 02:00N 25°42' W 080°11'0 0.0
2017-Nov-24 01:30N 25°42' W 080°11'0 0.0
2017-Nov-24 01:00N 25°42' W 080°11'0 0.0
2017-Nov-24 00:27N 25°42' W 080°11'0 0.0
2017-Nov-24 00:00N 25°42' W 080°11'0 0.0
2017-Nov-23 23:31N 25°42' W 080°11'0 0.0
2017-Nov-23 23:00N 25°42' W 080°11'0 0.0
2017-Nov-23 22:24N 25°42' W 080°11'0 0.0
2017-Nov-23 21:54N 25°42' W 080°11'0 0.0
2017-Nov-23 21:27N 25°42' W 080°11'0 0.0
2017-Nov-23 20:51N 25°42' W 080°11'0 0.0
2017-Nov-23 20:30N 25°42' W 080°11'0 0.0
2017-Nov-23 19:57N 25°42' W 080°11'0 0.0
2017-Nov-23 19:27N 25°42' W 080°11'0 0.0
2017-Nov-23 19:00N 25°42' W 080°11'0 0.0
2017-Nov-23 18:27N 25°42' W 080°11'0 0.0
2017-Nov-23 17:57N 25°42' W 080°11'0 0.0
2017-Nov-23 17:27N 25°42' W 080°11'0 0.0
2017-Nov-23 16:57N 25°42' W 080°11'0 0.0
2017-Nov-23 16:27N 25°42' W 080°11'0 0.0
2017-Nov-23 15:57N 25°42' W 080°11'0 0.0
2017-Nov-23 15:30N 25°42' W 080°11'0 0.0
2017-Nov-23 15:00N 25°42' W 080°11'0 0.0
2017-Nov-23 14:30N 25°42' W 080°11'0 0.0
2017-Nov-23 14:00N 25°42' W 080°11'0 0.0
2017-Nov-23 13:30N 25°42' W 080°11'  
Track history (hours):
 
Tides and Currents Weather Stations Pressure Air Temp Water Temp Dewpoint Dewpoint Depression Visibility Wind Speed Wind Dir Waves Ship Positions

S/y Good Life

Last reported at 2017-Dec-03 13:02 UTC. Time now 2017-Dec-18 20:38 UTC.
Position N 25°36' W 079°51'.
Warning: this ship's position is 15 days out of date.

Length 13 m.

Type: Sailing vessel. MMSI: 316035895.

Date/timePositionNaut miles runAvg speedWind from/ knotsBaromVisibWave heightAir tempDewpointWater temp
2017-Dec-03 13:02N 25°36' W 079°51'3 7.3
2017-Dec-03 12:34N 25°37' W 079°55'1 7.4
2017-Dec-03 12:25N 25°37' W 079°56'3 7.2
2017-Dec-03 11:56N 25°38' W 079°60'2 5.7
2017-Dec-03 11:30N 25°38' W 080°02'3 6.0
2017-Dec-03 11:00N 25°39' W 080°06'3 5.7
2017-Dec-03 10:30N 25°39' W 080°09'2 4.8
2017-Dec-03 10:00N 25°40' W 080°11'2 4.2
2017-Dec-03 09:30N 25°42' W 080°11'0 0.1
2017-Dec-03 08:59N 25°42' W 080°11'0 0.0
2017-Dec-03 08:26N 25°42' W 080°11'0 0.0
2017-Dec-03 07:59N 25°42' W 080°11'0 0.0
2017-Dec-03 07:29N 25°42' W 080°11'0 0.0
2017-Dec-03 06:53N 25°42' W 080°11'0 0.0
2017-Dec-03 06:23N 25°42' W 080°11'0 0.0
2017-Dec-03 05:56N 25°42' W 080°11'0 0.0
2017-Dec-03 05:14N 25°42' W 080°11'0 0.0
2017-Dec-03 04:56N 25°42' W 080°11'0 0.0
2017-Dec-03 04:26N 25°42' W 080°11'0 0.0
2017-Dec-03 03:53N 25°42' W 080°11'0 0.0
2017-Dec-03 03:17N 25°42' W 080°11'0 0.0
2017-Dec-03 02:56N 25°42' W 080°11'0 0.0
2017-Dec-03 02:26N 25°42' W 080°11'0 0.0
2017-Dec-03 01:59N 25°42' W 080°11'0 0.0
2017-Dec-03 01:29N 25°42' W 080°11'0 0.0
2017-Dec-03 00:56N 25°42' W 080°11'0 0.0
2017-Dec-03 00:29N 25°42' W 080°11'0 0.0
2017-Dec-02 23:56N 25°42' W 080°11'0 0.0
2017-Dec-02 23:29N 25°42' W 080°11'0 0.0
2017-Dec-02 22:53N 25°42' W 080°11'0 0.0
2017-Dec-02 22:23N 25°42' W 080°11'1 1.8
2017-Dec-02 21:59N 25°42' W 080°11'2 3.6
2017-Dec-02 21:28N 25°43' W 080°09'0 0.0
2017-Dec-02 20:58N 25°43' W 080°09'0 0.0
2017-Dec-02 20:28N 25°43' W 080°09'0 0.0
2017-Dec-02 19:58N 25°43' W 080°09'0 0.0
2017-Dec-02 19:28N 25°43' W 080°09'0 0.0
2017-Dec-02 18:55N 25°43' W 080°09'0 0.1
2017-Dec-02 18:30N 25°43' W 080°09'1 2.8
2017-Dec-02 18:01N 25°43' W 080°11'1 1.6
2017-Dec-02 17:24N 25°42' W 080°11'0 0.0
2017-Dec-02 17:00N 25°42' W 080°11'0 0.0
2017-Dec-02 16:30N 25°42' W 080°11'0 0.0
2017-Dec-02 16:00N 25°42' W 080°11'0 0.0
2017-Dec-02 15:30N 25°42' W 080°11'0 0.0
2017-Dec-02 14:51N 25°42' W 080°11'0 0.0
2017-Dec-02 14:23N 25°42' W 080°11'0 0.0
2017-Dec-02 13:53N 25°42' W 080°11'0 0.0
2017-Dec-02 13:29N 25°42' W 080°11'0 0.0
2017-Dec-02 12:56N 25°42' W 080°11'0 0.0
2017-Dec-02 12:29N 25°42' W 080°11'0 0.0
2017-Dec-02 11:59N 25°42' W 080°11'0 0.0
2017-Dec-02 11:29N 25°42' W 080°11'0 0.0
2017-Dec-02 10:59N 25°42' W 080°11'0 0.0
2017-Dec-02 10:29N 25°42' W 080°11'0 0.0
2017-Dec-02 09:59N 25°42' W 080°11'0 0.0
2017-Dec-02 09:29N 25°42' W 080°11'0 0.0
2017-Dec-02 08:56N 25°42' W 080°11'0 0.0
2017-Dec-02 08:29N 25°42' W 080°11'0 0.0
2017-Dec-02 07:59N 25°42' W 080°11'0 0.0
2017-Dec-02 07:29N 25°42' W 080°11'0 0.0
2017-Dec-02 06:59N 25°42' W 080°11'0 0.0
2017-Dec-02 06:29N 25°42' W 080°11'0 0.0
2017-Dec-02 05:59N 25°42' W 080°11'0 0.0
2017-Dec-02 05:29N 25°42' W 080°11'0 0.0
2017-Dec-02 04:59N 25°42' W 080°11'0 0.0
2017-Dec-02 04:29N 25°42' W 080°11'0 0.0
2017-Dec-02 03:59N 25°42' W 080°11'0 0.0
2017-Dec-02 03:23N 25°42' W 080°11'0 0.0
2017-Dec-02 02:59N 25°42' W 080°11'0 0.0
2017-Dec-02 02:29N 25°42' W 080°11'0 0.0
2017-Dec-02 01:59N 25°42' W 080°11'0 0.0
2017-Dec-02 01:29N 25°42' W 080°11'0 0.0
2017-Dec-02 00:59N 25°42' W 080°11'0 0.0
2017-Dec-02 00:20N 25°42' W 080°11'0 0.0
2017-Dec-01 23:59N 25°42' W 080°11'0 0.0
2017-Dec-01 23:29N 25°42' W 080°11'0 0.0
2017-Dec-01 22:59N 25°42' W 080°11'0 0.0
2017-Dec-01 22:29N 25°42' W 080°11'0 0.0
2017-Dec-01 21:56N 25°42' W 080°11'0 0.0
2017-Dec-01 21:29N 25°42' W 080°11'1 2.8
2017-Dec-01 20:59N 25°41' W 080°11'2 4.6
2017-Dec-01 20:30N 25°39' W 080°09'3 6.6
2017-Dec-01 20:00N 25°39' W 080°06'2 4.0
2017-Dec-01 19:30N 25°40' W 080°05'3 6.7
2017-Dec-01 18:59N 25°44' W 080°05'2 4.6
2017-Dec-01 18:30N 25°46' W 080°04'2 4.5
2017-Dec-01 18:00N 25°48' W 080°04'3 6.6
2017-Dec-01 17:30N 25°51' W 080°05'4 6.8
2017-Dec-01 16:56N 25°55' W 080°06'3 5.3
2017-Dec-01 16:25N 25°58' W 080°06'2 3.7
2017-Dec-01 15:55N 25°59' W 080°04'3 6.0
2017-Dec-01 15:25N 26°02' W 080°04'2 5.6
2017-Dec-01 15:00N 26°05' W 080°05'3 4.9
2017-Dec-01 14:28N 26°06' W 080°07'1 1.4
2017-Dec-01 13:57N 26°07' W 080°07'2 3.3
2017-Dec-01 13:26N 26°07' W 080°09'1 2.1
2017-Dec-01 12:55N 26°06' W 080°10'0 0.1
2017-Dec-01 12:29N 26°06' W 080°10'0 0.0
2017-Dec-01 11:59N 26°06' W 080°10'0 0.0
2017-Dec-01 11:29N 26°06' W 080°10'0 0.0
2017-Dec-01 10:59N 26°06' W 080°10'0 0.0
2017-Dec-01 10:29N 26°06' W 080°10'0 0.0
2017-Dec-01 09:59N 26°06' W 080°10'0 0.0
2017-Dec-01 09:29N 26°06' W 080°10'0 0.0
2017-Dec-01 08:59N 26°06' W 080°10'0 0.0
2017-Dec-01 08:29N 26°06' W 080°10'0 0.0
2017-Dec-01 07:59N 26°06' W 080°10'0 0.0
2017-Dec-01 07:29N 26°06' W 080°10'0 0.0
2017-Dec-01 06:59N 26°06' W 080°10'0 0.0
2017-Dec-01 06:29N 26°06' W 080°10'0 0.0
2017-Dec-01 05:59N 26°06' W 080°10'0 0.0
2017-Dec-01 05:20N 26°06' W 080°10'0 0.0
2017-Dec-01 04:50N 26°06' W 080°10'0 0.0
2017-Dec-01 04:23N 26°06' W 080°10'0 0.0
2017-Dec-01 03:53N 26°06' W 080°10'0 0.0
2017-Dec-01 03:23N 26°06' W 080°10'0 0.0
2017-Dec-01 02:53N 26°06' W 080°10'0 0.0
2017-Dec-01 02:23N 26°06' W 080°10'0 0.0
2017-Dec-01 01:53N 26°06' W 080°10'0 0.0
2017-Dec-01 01:26N 26°06' W 080°10'0 0.0
2017-Dec-01 00:53N 26°06' W 080°10'0 0.0
2017-Dec-01 00:26N 26°06' W 080°10'0 0.0
2017-Nov-30 23:56N 26°06' W 080°10'0 0.0
2017-Nov-30 23:26N 26°06' W 080°10'0 0.0
2017-Nov-30 22:56N 26°06' W 080°10'0 0.0
2017-Nov-30 22:29N 26°06' W 080°10'0 0.0
2017-Nov-30 21:56N 26°06' W 080°10'0 0.0
2017-Nov-30 21:29N 26°06' W 080°10'0 0.1
2017-Nov-30 20:59N 26°06' W 080°10'0 0.0
2017-Nov-30 20:29N 26°06' W 080°10'0 0.0
2017-Nov-30 19:59N 26°06' W 080°10'0 0.0
2017-Nov-30 19:29N 26°06' W 080°10'0 0.0
2017-Nov-30 18:58N 26°06' W 080°10'0 0.0
2017-Nov-30 18:28N 26°06' W 080°10'0 0.0
2017-Nov-30 17:58N 26°06' W 080°10'0 0.0
2017-Nov-30 17:28N 26°06' W 080°10'0 0.0
2017-Nov-30 16:58N 26°06' W 080°10'0 0.0
2017-Nov-30 16:28N 26°06' W 080°10'0 0.0
2017-Nov-30 15:55N 26°06' W 080°10'0 0.0
2017-Nov-30 15:28N 26°06' W 080°10'0 0.0
2017-Nov-30 14:58N 26°06' W 080°10'0 0.0
2017-Nov-30 14:28N 26°06' W 080°10'0 0.0
2017-Nov-30 13:58N 26°06' W 080°10'0 0.0
2017-Nov-30 13:19N 26°06' W 080°10'0 0.0
2017-Nov-30 12:46N 26°06' W 080°10'0 0.0
2017-Nov-30 12:19N 26°06' W 080°10'0 0.0
2017-Nov-30 11:46N 26°06' W 080°10'0 0.0
2017-Nov-30 11:22N 26°06' W 080°10'0 0.0
2017-Nov-30 10:52N 26°06' W 080°10'0 0.0
2017-Nov-30 10:22N 26°06' W 080°10'0 0.0
2017-Nov-30 09:52N 26°06' W 080°10'0 0.0
2017-Nov-30 09:22N 26°06' W 080°10'0 0.0
2017-Nov-30 08:52N 26°06' W 080°10'0 0.0
2017-Nov-30 08:22N 26°06' W 080°10'0 0.0
2017-Nov-30 07:55N 26°06' W 080°10'0 0.0
2017-Nov-30 07:22N 26°06' W 080°10'0 0.0
2017-Nov-30 06:55N 26°06' W 080°10'0 0.0
2017-Nov-30 06:25N 26°06' W 080°10'0 0.0
2017-Nov-30 05:55N 26°06' W 080°10'0 0.0
2017-Nov-30 05:28N 26°06' W 080°10'0 0.0
2017-Nov-30 04:58N 26°06' W 080°10'0 0.0
2017-Nov-30 04:28N 26°06' W 080°10'0 0.0
2017-Nov-30 03:58N 26°06' W 080°10'0 0.0
2017-Nov-30 03:28N 26°06' W 080°10'0 0.0
2017-Nov-30 02:58N 26°06' W 080°10'0 0.0
2017-Nov-30 02:28N 26°06' W 080°10'0 0.0
2017-Nov-30 01:58N 26°06' W 080°10'0 0.0
2017-Nov-30 01:28N 26°06' W 080°10'0 0.0
2017-Nov-30 00:58N 26°06' W 080°10'0 0.0
2017-Nov-30 00:28N 26°06' W 080°10'0 0.0
2017-Nov-29 23:58N 26°06' W 080°10'0 0.0
2017-Nov-29 23:28N 26°06' W 080°10'0 0.0
2017-Nov-29 22:58N 26°06' W 080°10'0 0.0
2017-Nov-29 22:19N 26°06' W 080°10'0 0.0
2017-Nov-29 21:52N 26°06' W 080°10'0 0.0
2017-Nov-29 21:22N 26°06' W 080°10'0 0.0
2017-Nov-29 20:52N 26°06' W 080°10'0 0.0
2017-Nov-29 20:22N 26°06' W 080°10'0 0.0
2017-Nov-29 19:52N 26°06' W 080°10'0 0.0
2017-Nov-29 19:22N 26°06' W 080°10'0 0.0
2017-Nov-29 18:55N 26°06' W 080°10'0 0.0
2017-Nov-29 18:25N 26°06' W 080°10'0 0.0
2017-Nov-29 17:55N 26°06' W 080°10'0 0.0
2017-Nov-29 17:25N 26°06' W 080°10'0 0.0
2017-Nov-29 16:55N 26°06' W 080°10'0 0.0
2017-Nov-29 16:25N 26°06' W 080°10'0 0.0
2017-Nov-29 15:55N 26°06' W 080°10'0 0.0
2017-Nov-29 15:28N 26°06' W 080°10'0 0.0
2017-Nov-29 14:55N 26°06' W 080°10'0 0.0
2017-Nov-29 14:28N 26°06' W 080°10'0 0.0
2017-Nov-29 13:58N 26°06' W 080°10'0 0.0
2017-Nov-29 13:25N 26°06' W 080°10'0 0.0
2017-Nov-29 12:58N 26°06' W 080°10'0 0.0
2017-Nov-29 12:28N 26°06' W 080°10'0 0.0
2017-Nov-29 11:58N 26°06' W 080°10'0 0.0
2017-Nov-29 11:28N 26°06' W 080°10'0 0.0
2017-Nov-29 10:58N 26°06' W 080°10'0 0.0
2017-Nov-29 10:28N 26°06' W 080°10'0 0.0
2017-Nov-29 09:58N 26°06' W 080°10'0 0.0
2017-Nov-29 09:28N 26°06' W 080°10'0 0.0
2017-Nov-29 08:49N 26°06' W 080°10'0 0.0
2017-Nov-29 08:19N 26°06' W 080°10'0 0.0
2017-Nov-29 07:49N 26°06' W 080°10'0 0.0
2017-Nov-29 07:22N 26°06' W 080°10'0 0.0
2017-Nov-29 06:52N 26°06' W 080°10'0 0.0
2017-Nov-29 06:19N 26°06' W 080°10'0 0.0
2017-Nov-29 05:52N 26°06' W 080°10'0 0.0
2017-Nov-29 05:22N 26°06' W 080°10'0 0.0
2017-Nov-29 04:55N 26°06' W 080°10'0 0.0
2017-Nov-29 04:25N 26°06' W 080°10'0 0.0
2017-Nov-29 03:55N 26°06' W 080°10'0 0.0
2017-Nov-29 03:25N 26°06' W 080°10'0 0.0
2017-Nov-29 02:55N 26°06' W 080°10'0 0.0
2017-Nov-29 02:25N 26°06' W 080°10'0 0.0
2017-Nov-29 01:58N 26°06' W 080°10'0 0.0
2017-Nov-29 01:28N 26°06' W 080°10'0 0.0
2017-Nov-29 00:58N 26°06' W 080°10'0 0.0
2017-Nov-29 00:28N 26°06' W 080°10'0 0.0
2017-Nov-28 23:58N 26°06' W 080°10'0 0.0
2017-Nov-28 23:28N 26°06' W 080°10'0 0.0
2017-Nov-28 22:58N 26°06' W 080°10'0 0.0
2017-Nov-28 22:28N 26°06' W 080°10'0 0.0
2017-Nov-28 21:58N 26°06' W 080°10'0 0.0
2017-Nov-28 21:28N 26°06' W 080°10'0 0.0
2017-Nov-28 20:58N 26°06' W 080°10'0 0.0
2017-Nov-28 20:28N 26°06' W 080°10'0 0.0
2017-Nov-28 19:58N 26°06' W 080°10'0 0.0
2017-Nov-28 19:28N 26°06' W 080°10'0 0.0
2017-Nov-28 18:49N 26°06' W 080°10'0 0.0
2017-Nov-28 18:16N 26°06' W 080°10'0 0.0
2017-Nov-28 17:49N 26°06' W 080°10'0 0.0
2017-Nov-28 17:22N 26°06' W 080°10'0 0.0
2017-Nov-28 16:52N 26°06' W 080°10'0 0.1
2017-Nov-28 16:22N 26°06' W 080°10'0 0.2
2017-Nov-28 15:58N 26°06' W 080°10'0 0.0
2017-Nov-28 14:58N 26°06' W 080°10'0 0.0
2017-Nov-28 14:28N 26°06' W 080°10'0 0.0
2017-Nov-28 13:49N 26°06' W 080°10'0 0.0
2017-Nov-28 13:19N 26°06' W 080°10'0 0.0
2017-Nov-28 12:49N 26°06' W 080°10'0 0.0
2017-Nov-28 12:19N 26°06' W 080°10'0 0.0
2017-Nov-28 11:52N 26°06' W 080°10'0 0.0
2017-Nov-28 11:22N 26°06' W 080°10'0 0.0
2017-Nov-28 10:52N 26°06' W 080°10'0 0.0
2017-Nov-28 10:22N 26°06' W 080°10'0 0.0
2017-Nov-28 09:52N 26°06' W 080°10'0 0.0
2017-Nov-28 09:25N 26°06' W 080°10'0 0.0
2017-Nov-28 08:55N 26°06' W 080°10'0 0.0
2017-Nov-28 08:25N 26°06' W 080°10'0 0.0
2017-Nov-28 07:55N 26°06' W 080°10'0 0.0
2017-Nov-28 07:25N 26°06' W 080°10'0 0.0
2017-Nov-28 06:55N 26°06' W 080°10'0 0.0
2017-Nov-28 06:28N 26°06' W 080°10'0 0.0
2017-Nov-28 05:58N 26°06' W 080°10'0 0.0
2017-Nov-28 05:28N 26°06' W 080°10'0 0.0
2017-Nov-28 04:28N 26°06' W 080°10'0 0.0
2017-Nov-28 03:58N 26°06' W 080°10'0 0.0
2017-Nov-28 03:28N 26°06' W 080°10'0 0.0
2017-Nov-28 02:58N 26°06' W 080°10'0 0.0
2017-Nov-28 02:28N 26°06' W 080°10'0 0.0
2017-Nov-28 01:58N 26°06' W 080°10'0 0.0
2017-Nov-28 01:28N 26°06' W 080°10'0 0.0
2017-Nov-28 00:58N 26°06' W 080°10'0 0.0
2017-Nov-28 00:28N 26°06' W 080°10'0 0.0
2017-Nov-27 23:58N 26°06' W 080°10'0 0.0
2017-Nov-27 23:19N 26°06' W 080°10'0 0.0
2017-Nov-27 22:49N 26°06' W 080°10'0 0.0
2017-Nov-27 22:22N 26°06' W 080°10'0 0.0
2017-Nov-27 21:52N 26°06' W 080°10'0 0.0
2017-Nov-27 21:22N 26°06' W 080°10'0 0.0
2017-Nov-27 20:52N 26°06' W 080°10'0 0.0
2017-Nov-27 20:22N 26°06' W 080°10'0 0.0
2017-Nov-27 19:52N 26°06' W 080°10'0 0.0
2017-Nov-27 19:25N 26°06' W 080°10'0 0.0
2017-Nov-27 18:55N 26°06' W 080°10'0 0.0
2017-Nov-27 18:25N 26°06' W 080°10'0 0.0
2017-Nov-27 17:55N 26°06' W 080°10'0 0.0
2017-Nov-27 17:25N 26°06' W 080°10'0 0.0
2017-Nov-27 16:55N 26°06' W 080°10'1 1.3
2017-Nov-27 16:30N 26°06' W 080°10'1 2.6
2017-Nov-27 16:00N 26°07' W 080°08'2 3.2
2017-Nov-27 15:30N 26°06' W 080°07'0 0.1
2017-Nov-27 14:58N 26°06' W 080°07'0 0.0
2017-Nov-27 14:28N 26°06' W 080°07'0 0.0
2017-Nov-27 13:58N 26°06' W 080°07'0 0.0
2017-Nov-27 13:28N 26°06' W 080°07'0 0.0
2017-Nov-27 12:58N 26°06' W 080°07'0 0.0
2017-Nov-27 12:28N 26°06' W 080°07'0 0.0
2017-Nov-27 11:58N 26°06' W 080°07'0 0.0
2017-Nov-27 11:28N 26°06' W 080°07'0 0.0
2017-Nov-27 10:58N 26°06' W 080°07'0 0.0
2017-Nov-27 10:19N 26°06' W 080°07'0 0.0
2017-Nov-27 09:52N 26°06' W 080°07'0 0.0
2017-Nov-27 09:22N 26°06' W 080°07'0 0.0
2017-Nov-27 08:52N 26°06' W 080°07'0 0.0
2017-Nov-27 08:22N 26°06' W 080°07'0 0.0
2017-Nov-27 07:52N 26°06' W 080°07'0 0.0
2017-Nov-27 07:22N 26°06' W 080°07'0 0.0
2017-Nov-27 06:40N 26°06' W 080°07'0 0.0
2017-Nov-27 06:22N 26°06' W 080°07'0 0.0
2017-Nov-27 05:55N 26°06' W 080°07'0 0.0
2017-Nov-27 05:25N 26°06' W 080°07'0 0.0
2017-Nov-27 04:25N 26°06' W 080°07'0 0.0
2017-Nov-27 03:55N 26°06' W 080°07'0 0.0
2017-Nov-27 03:28N 26°06' W 080°07'0 0.0
2017-Nov-27 02:55N 26°06' W 080°07'0 0.0
2017-Nov-27 02:25N 26°06' W 080°07'0 0.0
2017-Nov-27 01:58N 26°06' W 080°07'0 0.0
2017-Nov-27 01:28N 26°06' W 080°07'0 0.0
2017-Nov-27 00:58N 26°06' W 080°07'0 0.0
2017-Nov-27 00:28N 26°06' W 080°07'0 0.0
2017-Nov-26 23:46N 26°06' W 080°07'0 0.0
2017-Nov-26 23:28N 26°06' W 080°07'0 0.0
2017-Nov-26 22:46N 26°06' W 080°07'0 0.0
2017-Nov-26 22:19N 26°06' W 080°07'0 0.0
2017-Nov-26 21:58N 26°06' W 080°07'0 0.0
2017-Nov-26 21:23N 26°06' W 080°07'1 1.6
2017-Nov-26 21:00N 26°06' W 080°07'1 1.2
2017-Nov-26 20:27N 26°06' W 080°06'2 3.7
2017-Nov-26 19:57N 26°04' W 080°05'2 4.1
2017-Nov-26 19:26N 26°02' W 080°04'2 4.4
2017-Nov-26 18:56N 26°00' W 080°04'2 4.2
2017-Nov-26 18:25N 25°58' W 080°04'2 3.9
2017-Nov-26 17:56N 25°56' W 080°04'2 4.5
2017-Nov-26 17:30N 25°54' W 080°05'2 4.8
2017-Nov-26 17:00N 25°52' W 080°05'3 5.2
2017-Nov-26 16:30N 25°49' W 080°05'3 5.1
2017-Nov-26 16:00N 25°47' W 080°05'2 4.4
2017-Nov-26 15:30N 25°44' W 080°05'2 5.0
2017-Nov-26 15:00N 25°42' W 080°05'3 5.1
2017-Nov-26 14:30N 25°39' W 080°05'3 5.1
2017-Nov-26 14:00N 25°39' W 080°08'3 5.8
2017-Nov-26 13:30N 25°39' W 080°11'2 4.5
2017-Nov-26 12:57N 25°42' W 080°11'0 0.0
2017-Nov-26 12:27N 25°42' W 080°11'0 0.0
2017-Nov-26 12:00N 25°42' W 080°11'0 0.0
2017-Nov-26 11:24N 25°42' W 080°11'0 0.0
2017-Nov-26 10:57N 25°42' W 080°11'0 0.0
2017-Nov-26 10:30N 25°42' W 080°11'0 0.0
2017-Nov-26 09:57N 25°42' W 080°11'0 0.0
2017-Nov-26 09:30N 25°42' W 080°11'0 0.0
2017-Nov-26 09:00N 25°42' W 080°11'0 0.0
2017-Nov-26 08:30N 25°42' W 080°11'0 0.0
2017-Nov-26 08:00N 25°42' W 080°11'0 0.0
2017-Nov-26 07:30N 25°42' W 080°11'0 0.0
2017-Nov-26 07:00N 25°42' W 080°11'0 0.0
2017-Nov-26 06:21N 25°42' W 080°11'0 0.0
2017-Nov-26 05:57N 25°42' W 080°11'0 0.0
2017-Nov-26 05:30N 25°42' W 080°11'0 0.0
2017-Nov-26 04:51N 25°42' W 080°11'0 0.0
2017-Nov-26 04:30N 25°42' W 080°11'0 0.0
2017-Nov-26 03:54N 25°42' W 080°11'0 0.0
2017-Nov-26 03:27N 25°42' W 080°11'0 0.0
2017-Nov-26 02:54N 25°42' W 080°11'0 0.0
2017-Nov-26 02:30N 25°42' W 080°11'0 0.0
2017-Nov-26 01:54N 25°42' W 080°11'0 0.0
2017-Nov-26 01:30N 25°42' W 080°11'0 0.0
2017-Nov-26 01:00N 25°42' W 080°11'0 0.0
2017-Nov-26 00:30N 25°42' W 080°11'0 0.0
2017-Nov-26 00:00N 25°42' W 080°11'0 0.0
2017-Nov-25 23:30N 25°42' W 080°11'0 0.0
2017-Nov-25 22:54N 25°42' W 080°11'0 0.0
2017-Nov-25 22:30N 25°42' W 080°11'0 0.0
2017-Nov-25 22:00N 25°42' W 080°11'0 0.0
2017-Nov-25 21:30N 25°42' W 080°11'0 0.0
2017-Nov-25 21:00N 25°42' W 080°11'0 0.0
2017-Nov-25 20:27N 25°42' W 080°11'0 0.0
2017-Nov-25 20:00N 25°42' W 080°11'0 0.0
2017-Nov-25 19:30N 25°42' W 080°11'0 0.3
2017-Nov-25 19:00N 25°42' W 080°11'3 5.2
2017-Nov-25 18:29N 25°39' W 080°12'3 5.4
2017-Nov-25 18:00N 25°37' W 080°13'3 5.3
2017-Nov-25 17:30N 25°34' W 080°14'3 0.2
2017-Nov-24 19:14N 25°31' W 080°14'2 4.5
2017-Nov-24 18:53N 25°32' W 080°14'2 3.6
2017-Nov-24 18:22N 25°34' W 080°14'1 3.3
2017-Nov-24 18:00N 25°35' W 080°14'3 5.3
2017-Nov-24 17:30N 25°38' W 080°13'3 5.6
2017-Nov-24 17:00N 25°41' W 080°12'2 3.1
2017-Nov-24 16:30N 25°42' W 080°11'0 0.0
2017-Nov-24 16:00N 25°42' W 080°11'0 0.0
2017-Nov-24 15:27N 25°42' W 080°11'0 0.0
2017-Nov-24 14:54N 25°42' W 080°11'0 0.0
2017-Nov-24 14:30N 25°42' W 080°11'0 0.0
2017-Nov-24 14:00N 25°42' W 080°11'0 0.0
2017-Nov-24 13:30N 25°42' W 080°11'0 0.0
2017-Nov-24 12:51N 25°42' W 080°11'0 0.0
2017-Nov-24 12:30N 25°42' W 080°11'0 0.0
2017-Nov-24 12:00N 25°42' W 080°11'0 0.0
2017-Nov-24 11:27N 25°42' W 080°11'0 0.0
2017-Nov-24 10:57N 25°42' W 080°11'0 0.0
2017-Nov-24 10:27N 25°42' W 080°11'0 0.0
2017-Nov-24 10:00N 25°42' W 080°11'0 0.0
2017-Nov-24 09:27N 25°42' W 080°11'0 0.0
2017-Nov-24 09:00N 25°42' W 080°11'0 0.0
2017-Nov-24 08:27N 25°42' W 080°11'0 0.0
2017-Nov-24 08:00N 25°42' W 080°11'0 0.0
2017-Nov-24 07:27N 25°42' W 080°11'0 0.0
2017-Nov-24 06:57N 25°42' W 080°11'0 0.0
2017-Nov-24 06:27N 25°42' W 080°11'0 0.0
2017-Nov-24 05:51N 25°42' W 080°11'0 0.0
2017-Nov-24 05:30N 25°42' W 080°11'0 0.0
2017-Nov-24 05:00N 25°42' W 080°11'0 0.0
2017-Nov-24 04:30N 25°42' W 080°11'0 0.0
2017-Nov-24 04:00N 25°42' W 080°11'0 0.0
2017-Nov-24 03:27N 25°42' W 080°11'0 0.0
2017-Nov-24 02:57N 25°42' W 080°11'0 0.0
2017-Nov-24 02:27N 25°42' W 080°11'0 0.0
2017-Nov-24 02:00N 25°42' W 080°11'0 0.0
2017-Nov-24 01:30N 25°42' W 080°11'0 0.0
2017-Nov-24 01:00N 25°42' W 080°11'0 0.0
2017-Nov-24 00:27N 25°42' W 080°11'0 0.0
2017-Nov-24 00:00N 25°42' W 080°11'0 0.0
2017-Nov-23 23:31N 25°42' W 080°11'0 0.0
2017-Nov-23 23:00N 25°42' W 080°11'0 0.0
2017-Nov-23 22:24N 25°42' W 080°11'0 0.0
2017-Nov-23 21:54N 25°42' W 080°11'0 0.0
2017-Nov-23 21:27N 25°42' W 080°11'0 0.0
2017-Nov-23 20:51N 25°42' W 080°11'0 0.0
2017-Nov-23 20:30N 25°42' W 080°11'0 0.0
2017-Nov-23 19:57N 25°42' W 080°11'0 0.0
2017-Nov-23 19:27N 25°42' W 080°11'0 0.0
2017-Nov-23 19:00N 25°42' W 080°11'0 0.0
2017-Nov-23 18:27N 25°42' W 080°11'0 0.0
2017-Nov-23 17:57N 25°42' W 080°11'0 0.0
2017-Nov-23 17:27N 25°42' W 080°11'0 0.0
2017-Nov-23 16:57N 25°42' W 080°11'0 0.0
2017-Nov-23 16:27N 25°42' W 080°11'0 0.0
2017-Nov-23 15:57N 25°42' W 080°11'0 0.0
2017-Nov-23 15:30N 25°42' W 080°11'0 0.0
2017-Nov-23 15:00N 25°42' W 080°11'0 0.0
2017-Nov-23 14:30N 25°42' W 080°11'0 0.0
2017-Nov-23 14:00N 25°42' W 080°11'0 0.0
2017-Nov-23 13:30N 25°42' W 080°11'  

Dump ship's entire track history